createdAt,value
2022-10-17T00:00:52.968Z,88.60
2022-10-17T00:03:54.872Z,88.60
2022-10-17T00:06:56.774Z,88.70
2022-10-17T00:09:58.656Z,88.60
2022-10-17T00:13:00.449Z,88.40
2022-10-17T00:16:02.425Z,88.40
2022-10-17T00:19:05.897Z,88.50
2022-10-17T00:22:07.765Z,88.50
2022-10-17T00:25:10.132Z,88.40
2022-10-17T00:28:12.863Z,88.40
2022-10-17T00:31:16.742Z,88.30
2022-10-17T00:34:18.628Z,88.50
2022-10-17T00:37:20.654Z,88.20
2022-10-17T00:40:22.745Z,88.30
2022-10-17T00:43:24.718Z,88.20
2022-10-17T00:46:33.959Z,88.50
2022-10-17T00:49:37.316Z,88.80
2022-10-17T00:52:40.259Z,88.80
2022-10-17T00:55:49.858Z,88.80
2022-10-17T00:58:52.125Z,88.60
2022-10-17T01:02:01.955Z,88.50
2022-10-17T01:05:04.101Z,88.70
2022-10-17T01:08:06.520Z,88.40
2022-10-17T01:11:35.545Z,88.30
2022-10-17T01:15:02.348Z,88.70
2022-10-17T01:18:30.715Z,88.60
2022-10-17T01:21:38.907Z,88.10
2022-10-17T01:25:31.607Z,88.40
2022-10-17T01:28:45.534Z,88.70
2022-10-17T01:31:55.707Z,88.10
2022-10-17T01:35:00.867Z,88.70
2022-10-17T01:38:08.383Z,88.70
2022-10-17T01:41:42.980Z,89.00
2022-10-17T01:45:03.349Z,88.90
2022-10-17T01:48:09.022Z,88.60
2022-10-17T01:51:22.645Z,88.20
2022-10-17T01:54:43.878Z,88.30
2022-10-17T01:57:55.478Z,88.20
2022-10-17T02:01:02.116Z,88.50
2022-10-17T02:04:07.992Z,88.30
2022-10-17T02:07:11.918Z,88.20
2022-10-17T02:10:44.402Z,88.40
2022-10-17T02:14:01.678Z,88.20
2022-10-17T02:17:52.269Z,88.30
2022-10-17T02:21:05.844Z,88.30
2022-10-17T02:24:43.644Z,88.30
2022-10-17T02:28:04.934Z,88.20
2022-10-17T02:31:09.636Z,88.40
2022-10-17T02:34:26.643Z,88.30
2022-10-17T02:37:31.294Z,88.50
2022-10-17T02:40:34.587Z,88.40
2022-10-17T02:43:37.818Z,88.20
2022-10-17T02:46:41.534Z,88.50
2022-10-17T02:49:50.331Z,88.20
2022-10-17T02:53:01.386Z,88.10
2022-10-17T02:56:08.944Z,88.20
2022-10-17T02:59:15.675Z,88.20
2022-10-17T03:02:18.480Z,88.50
2022-10-17T03:05:25.840Z,88.70
2022-10-17T03:08:30.251Z,88.60
2022-10-17T03:11:32.147Z,88.30
2022-10-17T03:14:34.152Z,88.50
2022-10-17T03:17:38.184Z,88.40
2022-10-17T03:20:40.130Z,88.20
2022-10-17T03:23:42.102Z,88.40
2022-10-17T03:26:44.236Z,88.30
2022-10-17T03:29:46.346Z,88.40
2022-10-17T03:32:49.993Z,88.30
2022-10-17T03:35:51.997Z,88.40
2022-10-17T03:38:54.755Z,88.20
2022-10-17T03:41:57.626Z,88.20
2022-10-17T03:44:59.580Z,88.30
2022-10-17T03:48:02.374Z,88.10
2022-10-17T03:51:09.681Z,88.40
2022-10-17T03:54:17.772Z,88.60
2022-10-17T03:57:19.694Z,88.30
2022-10-17T04:00:22.324Z,88.00
2022-10-17T04:03:30.420Z,88.10
2022-10-17T04:06:32.583Z,88.00
2022-10-17T04:09:35.435Z,88.00
2022-10-17T04:12:42.983Z,88.20
2022-10-17T04:15:59.967Z,88.10
2022-10-17T04:19:02.119Z,88.10
2022-10-17T04:22:09.357Z,87.90
2022-10-17T04:25:14.112Z,87.90
2022-10-17T04:28:19.418Z,87.90
2022-10-17T04:31:25.329Z,87.90
2022-10-17T04:34:40.384Z,88.10
2022-10-17T04:37:42.392Z,88.30
2022-10-17T04:40:51.439Z,87.90
2022-10-17T04:43:53.513Z,87.90
2022-10-17T04:46:56.450Z,87.90
2022-10-17T04:49:58.538Z,87.90
2022-10-17T04:53:00.661Z,88.10
2022-10-17T04:56:11.591Z,88.00
2022-10-17T04:59:13.628Z,88.00
2022-10-17T05:02:17.858Z,87.90
2022-10-17T05:05:21.256Z,87.60
2022-10-17T05:08:26.070Z,87.70
2022-10-17T05:11:29.321Z,88.00
2022-10-17T05:14:31.271Z,87.80
2022-10-17T05:17:33.410Z,88.10
2022-10-17T05:20:35.449Z,88.40
2022-10-17T05:23:37.304Z,88.70
2022-10-17T05:26:39.636Z,88.70
2022-10-17T05:29:41.482Z,88.70
2022-10-17T05:32:54.393Z,88.30
2022-10-17T05:35:56.504Z,87.70
2022-10-17T05:38:58.394Z,88.40
2022-10-17T05:42:00.698Z,88.20
2022-10-17T05:45:03.636Z,88.10
2022-10-17T05:48:05.708Z,87.90
2022-10-17T05:51:09.659Z,87.90
2022-10-17T05:54:12.221Z,87.80
2022-10-17T05:57:14.129Z,87.90
2022-10-17T06:00:16.701Z,87.90
2022-10-17T06:03:23.210Z,87.80
2022-10-17T06:06:25.246Z,87.90
2022-10-17T06:09:28.259Z,87.70
2022-10-17T06:12:31.802Z,87.80
2022-10-17T06:15:34.592Z,88.00
2022-10-17T06:18:40.871Z,87.90
2022-10-17T06:21:42.718Z,88.00
2022-10-17T06:24:48.296Z,88.10
2022-10-17T06:27:50.600Z,88.10
2022-10-17T06:30:52.595Z,88.10
2022-10-17T06:33:54.692Z,87.70
2022-10-17T06:40:20.290Z,87.70
2022-10-17T06:43:26.949Z,87.70
2022-10-17T06:46:52.402Z,87.80
2022-10-17T06:49:54.350Z,88.00
2022-10-17T06:53:07.130Z,87.50
2022-10-17T06:56:41.153Z,87.30
2022-10-17T07:00:01.675Z,86.50
2022-10-17T07:03:13.377Z,85.70
2022-10-17T07:06:15.375Z,84.80
2022-10-17T07:09:18.777Z,83.50
2022-10-17T07:12:20.582Z,84.30
2022-10-17T07:15:22.500Z,84.10
2022-10-17T07:18:24.475Z,83.30
2022-10-17T07:21:26.338Z,81.80
2022-10-17T07:24:28.726Z,81.40
2022-10-17T07:27:41.492Z,81.30
2022-10-17T07:30:43.656Z,78.80
2022-10-17T07:33:47.528Z,76.10
2022-10-17T07:36:49.848Z,76.20
2022-10-17T07:39:51.704Z,73.80
2022-10-17T07:42:54.017Z,71.70
2022-10-17T07:45:56.276Z,69.90
2022-10-17T07:48:58.200Z,69.20
2022-10-17T07:52:00.035Z,68.40
2022-10-17T07:55:01.861Z,69.50
2022-10-17T07:58:03.778Z,66.30
2022-10-17T08:01:10.869Z,64.70
2022-10-17T08:04:15.761Z,64.00
2022-10-17T08:07:23.240Z,61.50
2022-10-17T08:10:28.776Z,63.50
2022-10-17T08:13:30.589Z,63.60
2022-10-17T08:16:32.515Z,61.90
2022-10-17T08:19:34.468Z,60.00
2022-10-17T08:22:36.297Z,58.80
2022-10-17T08:25:39.064Z,58.60
2022-10-17T08:28:41.202Z,58.30
2022-10-17T08:31:47.436Z,58.10
2022-10-17T08:34:50.367Z,58.10
2022-10-17T08:37:52.250Z,58.30
2022-10-17T08:40:57.727Z,57.40
2022-10-17T08:44:02.338Z,57.80
2022-10-17T08:47:09.344Z,57.00
2022-10-17T08:50:35.613Z,56.00
2022-10-17T08:53:40.383Z,55.60
2022-10-17T08:56:49.762Z,56.90
2022-10-17T08:59:54.255Z,57.30
2022-10-17T09:03:29.200Z,58.40
2022-10-17T09:06:43.733Z,58.70
2022-10-17T09:09:54.617Z,57.60
2022-10-17T09:13:12.934Z,58.80
2022-10-17T09:16:21.101Z,57.60
2022-10-17T09:19:33.739Z,58.70
2022-10-17T09:22:49.013Z,59.00
2022-10-17T09:25:56.596Z,59.80
2022-10-17T09:29:00.776Z,59.70
2022-10-17T09:32:18.278Z,59.00
2022-10-17T09:35:21.749Z,58.20
2022-10-17T09:38:29.314Z,59.20
2022-10-17T09:41:46.567Z,58.80
2022-10-17T09:45:02.941Z,58.80
2022-10-17T09:48:37.285Z,57.90
2022-10-17T09:51:40.692Z,58.40
2022-10-17T09:54:46.172Z,56.70
2022-10-17T09:58:08.647Z,56.00
2022-10-17T10:01:30.750Z,56.70
2022-10-17T10:04:46.762Z,56.00
2022-10-17T10:08:19.967Z,55.70
2022-10-17T10:11:43.090Z,58.10
2022-10-17T10:14:47.232Z,55.80
2022-10-17T10:17:49.333Z,56.30
2022-10-17T10:21:13.042Z,57.00
2022-10-17T10:24:14.915Z,56.30
2022-10-17T10:27:18.608Z,55.90
2022-10-17T10:30:25.999Z,54.90
2022-10-17T10:33:29.989Z,55.70
2022-10-17T10:36:46.532Z,54.30
2022-10-17T10:39:51.820Z,55.50
2022-10-17T10:42:59.222Z,55.70
2022-10-17T10:46:06.840Z,55.90
2022-10-17T10:49:30.995Z,55.40
2022-10-17T11:03:29.850Z,54.10
2022-10-17T11:06:37.523Z,54.80
2022-10-17T11:09:54.692Z,57.00
2022-10-17T11:13:11.118Z,56.10
2022-10-17T11:16:32.874Z,57.10
2022-10-17T11:20:03.478Z,59.00
2022-10-17T11:23:16.267Z,56.70
2022-10-17T11:26:28.184Z,58.00
2022-10-17T11:29:39.428Z,57.20
2022-10-17T11:33:12.208Z,56.90
2022-10-17T11:36:16.200Z,57.70
2022-10-17T11:43:14.139Z,56.80
2022-10-17T11:46:28.244Z,56.70
2022-10-17T11:49:40.642Z,56.70
2022-10-17T11:53:11.495Z,57.70
2022-10-17T11:56:18.742Z,57.40
2022-10-17T11:59:57.673Z,57.00
2022-10-17T12:03:30.154Z,58.20
2022-10-17T12:06:51.250Z,58.50
2022-10-17T12:10:06.920Z,58.10
2022-10-17T12:13:37.744Z,60.10
2022-10-17T12:16:44.105Z,61.10
2022-10-17T12:19:46.132Z,59.90
2022-10-17T12:22:49.963Z,59.90
2022-10-17T12:25:59.693Z,59.90
2022-10-17T12:29:28.112Z,59.80
2022-10-17T12:32:36.774Z,60.50
2022-10-17T12:36:27.127Z,59.90
2022-10-17T12:39:28.998Z,60.40
2022-10-17T12:42:32.735Z,60.50
2022-10-17T12:45:52.456Z,60.70
2022-10-17T12:48:59.335Z,59.70
2022-10-17T12:52:32.043Z,60.30
2022-10-17T12:55:34.327Z,60.20
2022-10-17T12:58:36.868Z,58.00
2022-10-17T13:01:43.410Z,58.70
2022-10-17T13:04:45.891Z,57.50
2022-10-17T13:07:49.427Z,57.80
2022-10-17T13:10:53.194Z,59.60
2022-10-17T13:13:58.468Z,59.10
2022-10-17T13:17:03.183Z,58.30
2022-10-17T13:20:23.606Z,57.60
2022-10-17T13:23:37.528Z,58.70
2022-10-17T13:26:47.988Z,57.20
2022-10-17T13:29:49.850Z,58.20
2022-10-17T13:32:51.952Z,58.10
2022-10-17T13:36:00.315Z,57.70
2022-10-17T13:39:12.342Z,57.80
2022-10-17T13:42:23.761Z,58.50
2022-10-17T13:45:28.565Z,58.50
2022-10-17T13:48:32.523Z,59.50
2022-10-17T13:51:34.881Z,58.30
2022-10-17T13:54:36.657Z,59.40
2022-10-17T13:57:38.665Z,59.10
2022-10-17T14:00:40.948Z,59.80
2022-10-17T14:03:48.495Z,59.30
2022-10-17T14:06:52.374Z,59.40
2022-10-17T14:09:54.607Z,59.70
2022-10-17T14:12:57.073Z,59.90
2022-10-17T14:16:01.509Z,60.40
2022-10-17T14:19:05.270Z,60.40
2022-10-17T14:22:27.799Z,60.90
2022-10-17T14:25:38.521Z,61.10
2022-10-17T14:28:42.840Z,60.30
2022-10-17T14:31:45.046Z,60.50
2022-10-17T14:34:52.156Z,60.50
2022-10-17T14:38:00.313Z,60.50
2022-10-17T14:44:32.615Z,60.80
2022-10-17T14:47:50.405Z,61.10
2022-10-17T14:51:16.630Z,62.30
2022-10-17T14:54:36.832Z,63.00
2022-10-17T14:57:45.538Z,62.20
2022-10-17T15:00:47.398Z,63.00
2022-10-17T15:03:49.149Z,62.60
2022-10-17T15:06:55.237Z,62.50
2022-10-17T15:09:57.098Z,62.60
2022-10-17T15:13:15.866Z,61.60
2022-10-17T15:16:24.311Z,62.50
2022-10-17T15:19:26.147Z,61.90
2022-10-17T15:22:28.376Z,63.40
2022-10-17T15:25:31.706Z,63.00
2022-10-17T15:28:33.533Z,63.80
2022-10-17T15:31:35.283Z,65.30
2022-10-17T15:34:37.226Z,66.00
2022-10-17T15:37:39.496Z,66.20
2022-10-17T15:40:41.710Z,66.00
2022-10-17T15:43:43.561Z,65.50
2022-10-17T15:46:45.291Z,65.90
2022-10-17T15:49:47.120Z,66.10
2022-10-17T15:52:49.328Z,66.00
2022-10-17T15:55:51.237Z,66.50
2022-10-17T15:58:53.662Z,66.20
2022-10-17T16:01:55.766Z,65.90
2022-10-17T16:04:57.591Z,67.20
2022-10-17T16:07:59.375Z,68.20
2022-10-17T16:11:01.199Z,68.10
2022-10-17T16:14:06.148Z,67.80
2022-10-17T16:17:13.327Z,67.80
2022-10-17T16:20:15.200Z,67.30
2022-10-17T16:23:16.962Z,67.70
2022-10-17T16:26:18.804Z,68.90
2022-10-17T16:29:20.613Z,69.90
2022-10-17T16:32:22.632Z,69.30
2022-10-17T16:35:33.169Z,69.30
2022-10-17T16:38:38.569Z,70.80
2022-10-17T16:41:40.376Z,71.10
2022-10-17T16:44:42.155Z,71.50
2022-10-17T16:47:44.143Z,72.50
2022-10-17T16:50:45.866Z,74.40
2022-10-17T16:53:49.698Z,76.20
2022-10-17T16:56:51.652Z,77.40
2022-10-17T16:59:53.439Z,78.90
2022-10-17T17:02:55.450Z,79.50
2022-10-17T17:05:57.261Z,79.60
2022-10-17T17:08:59.083Z,80.50
2022-10-17T17:12:00.911Z,80.80
2022-10-17T17:15:03.687Z,81.40
2022-10-17T17:18:06.400Z,81.30
2022-10-17T17:21:09.997Z,81.40
2022-10-17T17:24:11.816Z,82.00
2022-10-17T17:27:13.802Z,82.50
2022-10-17T17:30:15.673Z,82.40
2022-10-17T17:33:17.576Z,82.70
2022-10-17T17:36:26.681Z,83.20
2022-10-17T17:39:28.622Z,83.10
2022-10-17T17:42:30.645Z,83.30
2022-10-17T17:45:32.387Z,83.40
2022-10-17T17:48:36.680Z,83.50
2022-10-17T17:51:38.983Z,83.50
2022-10-17T17:54:41.159Z,83.60
2022-10-17T17:57:43.050Z,84.00
2022-10-17T18:00:44.906Z,84.40
2022-10-17T18:03:47.732Z,84.30
2022-10-17T18:06:49.613Z,84.50
2022-10-17T18:09:51.588Z,84.90
2022-10-17T18:12:53.637Z,84.70
2022-10-17T18:16:00.233Z,84.80
2022-10-17T18:19:06.782Z,85.00
2022-10-17T18:22:08.954Z,84.70
2022-10-17T18:25:10.917Z,84.80
2022-10-17T18:28:12.846Z,85.00
2022-10-17T18:31:17.883Z,85.00
2022-10-17T18:34:19.785Z,85.00
2022-10-17T18:37:21.670Z,85.50
2022-10-17T18:40:23.600Z,85.50
2022-10-17T18:43:25.421Z,85.30
2022-10-17T18:46:30.570Z,85.30
2022-10-17T18:49:33.035Z,85.10
2022-10-17T18:52:34.903Z,85.10
2022-10-17T18:55:39.534Z,86.10
2022-10-17T18:58:41.651Z,86.70
2022-10-17T19:01:43.431Z,86.50
2022-10-17T19:04:45.373Z,86.30
2022-10-17T19:07:47.307Z,86.20
2022-10-17T19:10:49.155Z,86.30
2022-10-17T19:13:52.203Z,86.20
2022-10-17T19:16:54.087Z,86.30
2022-10-17T19:19:55.884Z,86.50
2022-10-17T19:22:57.870Z,86.60
2022-10-17T19:26:08.370Z,86.40
2022-10-17T19:29:13.688Z,86.80
2022-10-17T19:32:17.976Z,86.70
2022-10-17T19:35:22.633Z,86.50
2022-10-17T19:38:24.713Z,86.80
2022-10-17T19:41:27.239Z,87.00
2022-10-17T19:44:29.119Z,86.80
2022-10-17T19:47:31.169Z,86.80
2022-10-17T19:50:33.576Z,86.40
2022-10-17T19:53:36.738Z,86.80
2022-10-17T19:56:38.642Z,86.60
2022-10-17T19:59:40.492Z,86.40
2022-10-17T20:02:42.289Z,86.80
2022-10-17T20:05:44.856Z,86.60
2022-10-17T20:08:46.861Z,86.70
2022-10-17T20:11:49.848Z,86.70
2022-10-17T20:14:51.660Z,86.80
2022-10-17T20:17:53.542Z,86.90
2022-10-17T20:20:56.076Z,86.70
2022-10-17T20:23:59.988Z,86.40
2022-10-17T20:27:01.971Z,86.20
2022-10-17T20:30:04.342Z,86.20
2022-10-17T20:33:06.168Z,86.10
2022-10-17T20:36:09.719Z,85.90
2022-10-17T20:39:13.192Z,85.80
2022-10-17T20:42:15.340Z,86.00
2022-10-17T20:45:17.344Z,86.40
2022-10-17T20:48:19.616Z,86.30
2022-10-17T20:51:21.721Z,86.30
2022-10-17T20:54:23.967Z,86.50
2022-10-17T20:57:25.864Z,86.90
2022-10-17T21:00:27.752Z,87.00
2022-10-17T21:03:29.617Z,86.90
2022-10-17T21:06:31.590Z,86.80
2022-10-17T21:09:33.646Z,86.70
2022-10-17T21:12:49.974Z,87.00
2022-10-17T21:15:52.061Z,86.90
2022-10-17T21:18:55.142Z,87.00
2022-10-17T21:21:56.980Z,86.60
2022-10-17T21:24:58.823Z,86.80
2022-10-17T21:28:00.767Z,87.10
2022-10-17T21:31:16.160Z,87.30
2022-10-17T21:34:21.724Z,88.10
2022-10-17T21:37:23.584Z,88.30
2022-10-17T21:40:25.457Z,88.30
2022-10-17T21:43:29.522Z,88.50
2022-10-17T21:46:33.825Z,88.00
2022-10-17T21:49:35.699Z,88.40
2022-10-17T21:52:37.524Z,88.10
2022-10-17T21:55:39.385Z,88.40
2022-10-17T21:58:42.114Z,88.30
2022-10-17T22:01:45.608Z,88.00
2022-10-17T22:04:47.580Z,87.90
2022-10-17T22:07:49.538Z,88.00
2022-10-17T22:10:51.485Z,87.60
2022-10-17T22:13:55.264Z,87.80
2022-10-17T22:16:57.141Z,87.80
2022-10-17T22:19:59.762Z,87.90
2022-10-17T22:23:01.695Z,87.60
2022-10-17T22:26:04.050Z,87.80
2022-10-17T22:29:07.421Z,87.80
2022-10-17T22:32:09.214Z,87.80
2022-10-17T22:35:11.251Z,88.00
2022-10-17T22:38:13.816Z,87.90
2022-10-17T22:41:15.783Z,87.90
2022-10-17T22:44:17.760Z,87.90
2022-10-17T22:47:19.593Z,87.80
2022-10-17T22:50:22.680Z,88.00
2022-10-17T22:53:25.212Z,87.60
2022-10-17T22:56:27.058Z,87.10
2022-10-17T22:59:28.906Z,87.20
2022-10-17T23:02:30.969Z,86.70
2022-10-17T23:05:32.901Z,87.10
2022-10-17T23:08:35.042Z,87.40
2022-10-17T23:11:39.419Z,87.40
2022-10-17T23:14:41.518Z,87.30
2022-10-17T23:17:45.854Z,87.20
2022-10-17T23:20:47.755Z,87.20
2022-10-17T23:23:49.690Z,87.40
2022-10-17T23:26:51.535Z,87.30
2022-10-17T23:29:53.365Z,87.40
2022-10-17T23:32:55.195Z,87.50
2022-10-17T23:35:57.025Z,87.30
2022-10-17T23:38:58.904Z,87.20
2022-10-17T23:42:00.799Z,87.30
2022-10-17T23:45:03.732Z,87.50
2022-10-17T23:48:05.914Z,87.60
2022-10-17T23:51:08.860Z,87.40
2022-10-17T23:54:10.722Z,87.50
2022-10-17T23:57:12.566Z,87.20
